sensor_id;sensor_type;location;lat;lon;timestamp;P1;durP1;ratioP1;P2;durP2;ratioP2
61407;SDS011;47274;43.054;25.146;2023-12-20T00:01:36;2.53;;;1.93;;
61407;SDS011;47274;43.054;25.146;2023-12-20T00:04:02;2.17;;;1.70;;
61407;SDS011;47274;43.054;25.146;2023-12-20T00:06:29;3.73;;;2.23;;
61407;SDS011;47274;43.054;25.146;2023-12-20T00:08:55;2.43;;;1.67;;
61407;SDS011;47274;43.054;25.146;2023-12-20T00:11:21;2.10;;;1.50;;
61407;SDS011;47274;43.054;25.146;2023-12-20T00:13:46;1.60;;;1.50;;
61407;SDS011;47274;43.054;25.146;2023-12-20T00:16:12;1.70;;;1.53;;
61407;SDS011;47274;43.054;25.146;2023-12-20T00:18:38;2.47;;;1.70;;
61407;SDS011;47274;43.054;25.146;2023-12-20T00:21:04;2.97;;;1.77;;
61407;SDS011;47274;43.054;25.146;2023-12-20T00:23:29;2.00;;;1.60;;
61407;SDS011;47274;43.054;25.146;2023-12-20T00:25:55;2.93;;;1.83;;
61407;SDS011;47274;43.054;25.146;2023-12-20T00:28:21;1.90;;;1.80;;
61407;SDS011;47274;43.054;25.146;2023-12-20T00:30:47;1.67;;;1.57;;
61407;SDS011;47274;43.054;25.146;2023-12-20T00:33:13;1.70;;;1.60;;
61407;SDS011;47274;43.054;25.146;2023-12-20T00:35:39;1.97;;;1.77;;
61407;SDS011;47274;43.054;25.146;2023-12-20T00:38:04;3.30;;;1.83;;
61407;SDS011;47274;43.054;25.146;2023-12-20T00:40:32;2.70;;;1.73;;
61407;SDS011;47274;43.054;25.146;2023-12-20T00:42:58;2.13;;;1.80;;
61407;SDS011;47274;43.054;25.146;2023-12-20T00:45:24;1.60;;;1.50;;
61407;SDS011;47274;43.054;25.146;2023-12-20T00:47:52;4.27;;;2.30;;
61407;SDS011;47274;43.054;25.146;2023-12-20T00:50:18;3.23;;;2.20;;
61407;SDS011;47274;43.054;25.146;2023-12-20T00:52:44;1.73;;;1.60;;
61407;SDS011;47274;43.054;25.146;2023-12-20T00:58:14;2.47;;;2.20;;
61407;SDS011;47274;43.054;25.146;2023-12-20T01:00:40;2.87;;;2.10;;
61407;SDS011;47274;43.054;25.146;2023-12-20T01:03:07;3.43;;;2.17;;
61407;SDS011;47274;43.054;25.146;2023-12-20T01:05:36;2.53;;;2.00;;
61407;SDS011;47274;43.054;25.146;2023-12-20T01:08:08;3.10;;;1.93;;
61407;SDS011;47274;43.054;25.146;2023-12-20T01:10:33;3.63;;;2.15;;
61407;SDS011;47274;43.054;25.146;2023-12-20T01:12:59;2.03;;;1.83;;
61407;SDS011;47274;43.054;25.146;2023-12-20T01:15:34;3.20;;;2.10;;
61407;SDS011;47274;43.054;25.146;2023-12-20T01:18:06;2.20;;;1.83;;
61407;SDS011;47274;43.054;25.146;2023-12-20T01:20:46;3.63;;;1.83;;
61407;SDS011;47274;43.054;25.146;2023-12-20T01:23:12;1.93;;;1.50;;
61407;SDS011;47274;43.054;25.146;2023-12-20T01:25:38;3.70;;;1.93;;
61407;SDS011;47274;43.054;25.146;2023-12-20T01:28:14;2.00;;;1.57;;
61407;SDS011;47274;43.054;25.146;2023-12-20T01:30:39;1.87;;;1.67;;
61407;SDS011;47274;43.054;25.146;2023-12-20T01:33:14;1.60;;;1.50;;
61407;SDS011;47274;43.054;25.146;2023-12-20T01:35:40;2.07;;;1.80;;
61407;SDS011;47274;43.054;25.146;2023-12-20T01:38:09;3.00;;;2.00;;
61407;SDS011;47274;43.054;25.146;2023-12-20T01:40:38;4.07;;;2.20;;
61407;SDS011;47274;43.054;25.146;2023-12-20T01:43:07;3.37;;;2.10;;
61407;SDS011;47274;43.054;25.146;2023-12-20T01:45:40;3.47;;;1.90;;
61407;SDS011;47274;43.054;25.146;2023-12-20T01:48:06;3.53;;;2.20;;
61407;SDS011;47274;43.054;25.146;2023-12-20T01:50:34;4.73;;;2.10;;
61407;SDS011;47274;43.054;25.146;2023-12-20T01:53:08;3.13;;;1.97;;
61407;SDS011;47274;43.054;25.146;2023-12-20T01:55:39;2.60;;;2.10;;
61407;SDS011;47274;43.054;25.146;2023-12-20T01:58:09;2.33;;;2.00;;
61407;SDS011;47274;43.054;25.146;2023-12-20T02:00:37;2.37;;;2.17;;
61407;SDS011;47274;43.054;25.146;2023-12-20T02:03:04;2.87;;;1.83;;
61407;SDS011;47274;43.054;25.146;2023-12-20T02:05:31;2.53;;;1.90;;
61407;SDS011;47274;43.054;25.146;2023-12-20T02:08:00;2.03;;;1.60;;
61407;SDS011;47274;43.054;25.146;2023-12-20T02:10:29;2.10;;;2.00;;
61407;SDS011;47274;43.054;25.146;2023-12-20T02:13:07;1.80;;;1.70;;
61407;SDS011;47274;43.054;25.146;2023-12-20T02:15:33;2.80;;;1.90;;
61407;SDS011;47274;43.054;25.146;2023-12-20T02:18:02;2.27;;;2.07;;
61407;SDS011;47274;43.054;25.146;2023-12-20T02:20:29;4.00;;;2.40;;
61407;SDS011;47274;43.054;25.146;2023-12-20T02:22:54;5.27;;;2.63;;
61407;SDS011;47274;43.054;25.146;2023-12-20T02:25:20;4.90;;;2.60;;
61407;SDS011;47274;43.054;25.146;2023-12-20T02:27:49;2.23;;;2.03;;
61407;SDS011;47274;43.054;25.146;2023-12-20T02:30:15;4.37;;;2.77;;
61407;SDS011;47274;43.054;25.146;2023-12-20T02:32:41;3.27;;;2.50;;
61407;SDS011;47274;43.054;25.146;2023-12-20T02:35:07;4.53;;;2.40;;
61407;SDS011;47274;43.054;25.146;2023-12-20T02:37:35;5.40;;;2.50;;
61407;SDS011;47274;43.054;25.146;2023-12-20T02:40:01;3.50;;;2.20;;
61407;SDS011;47274;43.054;25.146;2023-12-20T02:42:29;3.33;;;2.17;;
61407;SDS011;47274;43.054;25.146;2023-12-20T02:44:55;4.13;;;2.70;;
61407;SDS011;47274;43.054;25.146;2023-12-20T02:47:24;5.23;;;2.80;;
61407;SDS011;47274;43.054;25.146;2023-12-20T02:49:52;2.80;;;1.93;;
61407;SDS011;47274;43.054;25.146;2023-12-20T02:52:21;3.20;;;2.13;;
61407;SDS011;47274;43.054;25.146;2023-12-20T02:54:53;2.28;;;1.80;;
61407;SDS011;47274;43.054;25.146;2023-12-20T02:57:18;2.37;;;1.70;;
61407;SDS011;47274;43.054;25.146;2023-12-20T02:59:46;2.47;;;1.67;;
61407;SDS011;47274;43.054;25.146;2023-12-20T03:02:12;3.30;;;1.80;;
61407;SDS011;47274;43.054;25.146;2023-12-20T03:04:38;3.83;;;1.80;;
61407;SDS011;47274;43.054;25.146;2023-12-20T03:07:04;2.93;;;1.83;;
61407;SDS011;47274;43.054;25.146;2023-12-20T03:09:29;2.20;;;1.83;;
61407;SDS011;47274;43.054;25.146;2023-12-20T03:11:55;2.10;;;1.87;;
61407;SDS011;47274;43.054;25.146;2023-12-20T03:14:21;2.73;;;1.80;;
61407;SDS011;47274;43.054;25.146;2023-12-20T03:16:48;1.70;;;1.60;;
61407;SDS011;47274;43.054;25.146;2023-12-20T03:19:15;2.23;;;1.90;;
61407;SDS011;47274;43.054;25.146;2023-12-20T03:21:41;2.17;;;1.57;;
61407;SDS011;47274;43.054;25.146;2023-12-20T03:24:09;2.73;;;1.73;;
61407;SDS011;47274;43.054;25.146;2023-12-20T03:26:35;3.40;;;2.20;;
61407;SDS011;47274;43.054;25.146;2023-12-20T03:29:01;1.80;;;1.40;;
61407;SDS011;47274;43.054;25.146;2023-12-20T03:31:27;1.87;;;1.63;;
61407;SDS011;47274;43.054;25.146;2023-12-20T03:33:52;2.40;;;1.80;;
61407;SDS011;47274;43.054;25.146;2023-12-20T03:36:19;2.00;;;1.50;;
61407;SDS011;47274;43.054;25.146;2023-12-20T03:38:45;1.40;;;1.20;;
61407;SDS011;47274;43.054;25.146;2023-12-20T03:41:11;1.67;;;1.30;;
61407;SDS011;47274;43.054;25.146;2023-12-20T03:43:37;1.90;;;1.20;;
61407;SDS011;47274;43.054;25.146;2023-12-20T03:46:03;2.27;;;1.20;;
61407;SDS011;47274;43.054;25.146;2023-12-20T03:48:29;1.47;;;1.23;;
61407;SDS011;47274;43.054;25.146;2023-12-20T03:50:59;1.40;;;1.30;;
61407;SDS011;47274;43.054;25.146;2023-12-20T03:53:30;1.40;;;1.30;;
61407;SDS011;47274;43.054;25.146;2023-12-20T03:55:56;0.93;;;0.90;;
61407;SDS011;47274;43.054;25.146;2023-12-20T03:58:25;1.40;;;1.30;;
61407;SDS011;47274;43.054;25.146;2023-12-20T04:00:51;1.20;;;1.17;;
61407;SDS011;47274;43.054;25.146;2023-12-20T04:03:19;1.30;;;1.20;;
61407;SDS011;47274;43.054;25.146;2023-12-20T04:05:45;1.80;;;1.20;;
61407;SDS011;47274;43.054;25.146;2023-12-20T04:08:11;1.20;;;1.10;;
61407;SDS011;47274;43.054;25.146;2023-12-20T04:10:46;1.23;;;1.10;;
61407;SDS011;47274;43.054;25.146;2023-12-20T04:13:12;2.00;;;1.53;;
61407;SDS011;47274;43.054;25.146;2023-12-20T04:15:37;1.70;;;1.20;;
61407;SDS011;47274;43.054;25.146;2023-12-20T04:18:03;2.13;;;1.50;;
61407;SDS011;47274;43.054;25.146;2023-12-20T04:20:38;3.40;;;1.30;;
61407;SDS011;47274;43.054;25.146;2023-12-20T04:23:16;2.03;;;1.40;;
61407;SDS011;47274;43.054;25.146;2023-12-20T04:25:45;1.90;;;1.37;;
61407;SDS011;47274;43.054;25.146;2023-12-20T04:28:13;0.80;;;0.80;;
61407;SDS011;47274;43.054;25.146;2023-12-20T04:30:48;1.20;;;1.10;;
61407;SDS011;47274;43.054;25.146;2023-12-20T04:33:14;2.73;;;1.20;;
61407;SDS011;47274;43.054;25.146;2023-12-20T04:35:43;1.27;;;1.00;;
61407;SDS011;47274;43.054;25.146;2023-12-20T04:38:14;1.43;;;1.33;;
61407;SDS011;47274;43.054;25.146;2023-12-20T04:40:42;1.60;;;1.17;;
61407;SDS011;47274;43.054;25.146;2023-12-20T04:43:14;1.30;;;1.20;;
61407;SDS011;47274;43.054;25.146;2023-12-20T04:45:40;3.00;;;1.10;;
61407;SDS011;47274;43.054;25.146;2023-12-20T04:48:06;1.83;;;0.80;;
61407;SDS011;47274;43.054;25.146;2023-12-20T04:50:41;1.40;;;1.30;;
61407;SDS011;47274;43.054;25.146;2023-12-20T04:53:07;1.20;;;1.10;;
61407;SDS011;47274;43.054;25.146;2023-12-20T04:55:33;1.10;;;1.10;;
61407;SDS011;47274;43.054;25.146;2023-12-20T04:58:02;1.33;;;1.23;;
61407;SDS011;47274;43.054;25.146;2023-12-20T05:00:28;1.40;;;1.30;;
61407;SDS011;47274;43.054;25.146;2023-12-20T05:03:05;2.17;;;1.60;;
61407;SDS011;47274;43.054;25.146;2023-12-20T05:05:37;2.70;;;1.77;;
61407;SDS011;47274;43.054;25.146;2023-12-20T05:08:06;2.65;;;1.40;;
61407;SDS011;47274;43.054;25.146;2023-12-20T05:10:44;2.17;;;1.90;;
61407;SDS011;47274;43.054;25.146;2023-12-20T05:13:10;2.13;;;1.60;;
61407;SDS011;47274;43.054;25.146;2023-12-20T05:15:38;2.73;;;1.63;;
61407;SDS011;47274;43.054;25.146;2023-12-20T05:18:04;1.53;;;1.30;;
61407;SDS011;47274;43.054;25.146;2023-12-20T05:20:30;1.17;;;1.07;;
61407;SDS011;47274;43.054;25.146;2023-12-20T05:22:56;1.33;;;1.23;;
61407;SDS011;47274;43.054;25.146;2023-12-20T05:25:31;4.43;;;1.40;;
61407;SDS011;47274;43.054;25.146;2023-12-20T05:27:56;1.20;;;1.10;;
61407;SDS011;47274;43.054;25.146;2023-12-20T05:33:19;1.03;;;1.03;;
61407;SDS011;47274;43.054;25.146;2023-12-20T05:35:48;1.03;;;0.93;;
61407;SDS011;47274;43.054;25.146;2023-12-20T05:38:13;0.80;;;0.80;;
61407;SDS011;47274;43.054;25.146;2023-12-20T05:40:45;1.30;;;1.20;;
61407;SDS011;47274;43.054;25.146;2023-12-20T05:43:23;2.10;;;1.20;;
61407;SDS011;47274;43.054;25.146;2023-12-20T05:45:49;2.27;;;1.47;;
61407;SDS011;47274;43.054;25.146;2023-12-20T05:48:24;1.80;;;1.53;;
61407;SDS011;47274;43.054;25.146;2023-12-20T05:50:50;1.10;;;1.00;;
61407;SDS011;47274;43.054;25.146;2023-12-20T05:53:15;1.27;;;1.17;;
61407;SDS011;47274;43.054;25.146;2023-12-20T05:55:41;2.03;;;1.53;;
61407;SDS011;47274;43.054;25.146;2023-12-20T05:58:07;2.00;;;1.20;;
61407;SDS011;47274;43.054;25.146;2023-12-20T06:00:33;1.67;;;1.40;;
61407;SDS011;47274;43.054;25.146;2023-12-20T06:03:08;6.67;;;1.83;;
61407;SDS011;47274;43.054;25.146;2023-12-20T06:05:34;1.70;;;1.60;;
61407;SDS011;47274;43.054;25.146;2023-12-20T06:08:05;1.93;;;1.37;;
61407;SDS011;47274;43.054;25.146;2023-12-20T06:10:31;1.48;;;1.20;;
61407;SDS011;47274;43.054;25.146;2023-12-20T06:13:00;1.10;;;1.07;;
61407;SDS011;47274;43.054;25.146;2023-12-20T06:15:26;1.90;;;1.33;;
61407;SDS011;47274;43.054;25.146;2023-12-20T06:17:51;2.50;;;1.57;;
61407;SDS011;47274;43.054;25.146;2023-12-20T06:20:17;2.03;;;1.47;;
61407;SDS011;47274;43.054;25.146;2023-12-20T06:22:49;1.50;;;1.40;;
61407;SDS011;47274;43.054;25.146;2023-12-20T06:25:15;1.30;;;1.20;;
61407;SDS011;47274;43.054;25.146;2023-12-20T06:27:40;2.00;;;1.83;;
61407;SDS011;47274;43.054;25.146;2023-12-20T06:30:06;1.50;;;1.40;;
61407;SDS011;47274;43.054;25.146;2023-12-20T06:32:37;1.85;;;1.48;;
61407;SDS011;47274;43.054;25.146;2023-12-20T06:35:04;1.20;;;1.10;;
61407;SDS011;47274;43.054;25.146;2023-12-20T06:37:31;1.98;;;1.50;;
61407;SDS011;47274;43.054;25.146;2023-12-20T06:40:00;1.13;;;1.10;;
61407;SDS011;47274;43.054;25.146;2023-12-20T06:42:25;1.20;;;1.10;;
61407;SDS011;47274;43.054;25.146;2023-12-20T06:44:55;3.23;;;1.10;;
61407;SDS011;47274;43.054;25.146;2023-12-20T06:47:20;1.17;;;1.07;;
61407;SDS011;47274;43.054;25.146;2023-12-20T06:49:46;1.30;;;1.20;;
61407;SDS011;47274;43.054;25.146;2023-12-20T06:52:18;1.33;;;1.00;;
61407;SDS011;47274;43.054;25.146;2023-12-20T06:54:44;1.90;;;1.20;;
61407;SDS011;47274;43.054;25.146;2023-12-20T06:57:12;1.23;;;1.13;;
61407;SDS011;47274;43.054;25.146;2023-12-20T06:59:38;1.17;;;1.07;;
61407;SDS011;47274;43.054;25.146;2023-12-20T07:02:05;1.08;;;0.93;;
61407;SDS011;47274;43.054;25.146;2023-12-20T07:04:31;0.73;;;0.73;;
61407;SDS011;47274;43.054;25.146;2023-12-20T07:07:06;1.25;;;0.90;;
61407;SDS011;47274;43.054;25.146;2023-12-20T07:09:32;0.80;;;0.80;;
61407;SDS011;47274;43.054;25.146;2023-12-20T07:11:58;2.45;;;0.90;;
61407;SDS011;47274;43.054;25.146;2023-12-20T07:14:27;1.08;;;0.82;;
61407;SDS011;47274;43.054;25.146;2023-12-20T07:16:57;0.80;;;0.80;;
61407;SDS011;47274;43.054;25.146;2023-12-20T07:19:23;0.88;;;0.88;;
61407;SDS011;47274;43.054;25.146;2023-12-20T07:21:49;0.82;;;0.82;;
61407;SDS011;47274;43.054;25.146;2023-12-20T07:24:14;1.92;;;1.40;;
61407;SDS011;47274;43.054;25.146;2023-12-20T07:26:40;1.25;;;1.20;;
61407;SDS011;47274;43.054;25.146;2023-12-20T07:29:06;1.77;;;1.00;;
61407;SDS011;47274;43.054;25.146;2023-12-20T07:31:35;1.50;;;1.40;;
61407;SDS011;47274;43.054;25.146;2023-12-20T07:34:09;1.85;;;1.42;;
61407;SDS011;47274;43.054;25.146;2023-12-20T07:36:44;1.65;;;1.40;;
61407;SDS011;47274;43.054;25.146;2023-12-20T07:39:10;2.28;;;1.10;;
61407;SDS011;47274;43.054;25.146;2023-12-20T07:41:36;2.95;;;1.40;;
61407;SDS011;47274;43.054;25.146;2023-12-20T07:44:07;1.58;;;1.48;;
61407;SDS011;47274;43.054;25.146;2023-12-20T07:46:33;1.65;;;1.38;;
61407;SDS011;47274;43.054;25.146;2023-12-20T07:48:59;1.10;;;1.08;;
61407;SDS011;47274;43.054;25.146;2023-12-20T07:51:25;1.00;;;1.00;;
61407;SDS011;47274;43.054;25.146;2023-12-20T07:53:56;21.98;;;9.27;;
61407;SDS011;47274;43.054;25.146;2023-12-20T07:56:25;6.97;;;3.50;;
61407;SDS011;47274;43.054;25.146;2023-12-20T07:58:51;2.83;;;1.85;;
61407;SDS011;47274;43.054;25.146;2023-12-20T08:01:17;3.40;;;2.25;;
61407;SDS011;47274;43.054;25.146;2023-12-20T08:03:43;2.58;;;2.05;;
61407;SDS011;47274;43.054;25.146;2023-12-20T08:09:07;5.70;;;2.50;;
61407;SDS011;47274;43.054;25.146;2023-12-20T08:11:32;6.85;;;3.72;;
61407;SDS011;47274;43.054;25.146;2023-12-20T08:13:58;4.80;;;3.47;;
61407;SDS011;47274;43.054;25.146;2023-12-20T08:16:24;3.53;;;2.80;;
61407;SDS011;47274;43.054;25.146;2023-12-20T08:18:52;5.28;;;3.33;;
61407;SDS011;47274;43.054;25.146;2023-12-20T08:21:18;9.10;;;4.57;;
61407;SDS011;47274;43.054;25.146;2023-12-20T08:23:45;8.52;;;4.93;;
61407;SDS011;47274;43.054;25.146;2023-12-20T08:26:12;6.90;;;4.50;;
61407;SDS011;47274;43.054;25.146;2023-12-20T08:28:38;8.07;;;4.68;;
61407;SDS011;47274;43.054;25.146;2023-12-20T08:31:04;9.30;;;5.05;;
61407;SDS011;47274;43.054;25.146;2023-12-20T08:33:30;11.43;;;5.97;;
61407;SDS011;47274;43.054;25.146;2023-12-20T08:35:55;12.60;;;6.78;;
61407;SDS011;47274;43.054;25.146;2023-12-20T08:38:21;12.30;;;6.22;;
61407;SDS011;47274;43.054;25.146;2023-12-20T08:40:47;5.57;;;3.50;;
61407;SDS011;47274;43.054;25.146;2023-12-20T08:43:13;5.43;;;3.28;;
61407;SDS011;47274;43.054;25.146;2023-12-20T08:45:39;4.00;;;2.72;;
61407;SDS011;47274;43.054;25.146;2023-12-20T08:48:05;3.38;;;2.50;;
61407;SDS011;47274;43.054;25.146;2023-12-20T08:50:31;5.10;;;3.30;;
61407;SDS011;47274;43.054;25.146;2023-12-20T08:52:57;5.07;;;3.30;;
61407;SDS011;47274;43.054;25.146;2023-12-20T08:55:23;5.07;;;3.30;;
61407;SDS011;47274;43.054;25.146;2023-12-20T08:57:48;5.10;;;3.28;;
61407;SDS011;47274;43.054;25.146;2023-12-20T09:00:16;8.13;;;3.72;;
61407;SDS011;47274;43.054;25.146;2023-12-20T09:02:42;7.07;;;3.78;;
61407;SDS011;47274;43.054;25.146;2023-12-20T09:05:08;5.95;;;4.10;;
61407;SDS011;47274;43.054;25.146;2023-12-20T09:07:33;7.50;;;4.00;;
61407;SDS011;47274;43.054;25.146;2023-12-20T09:10:00;7.40;;;4.60;;
61407;SDS011;47274;43.054;25.146;2023-12-20T09:12:25;5.82;;;4.15;;
61407;SDS011;47274;43.054;25.146;2023-12-20T09:14:51;9.65;;;4.80;;
61407;SDS011;47274;43.054;25.146;2023-12-20T09:17:17;9.05;;;4.80;;
61407;SDS011;47274;43.054;25.146;2023-12-20T09:19:44;9.15;;;5.45;;
61407;SDS011;47274;43.054;25.146;2023-12-20T09:22:10;16.00;;;7.43;;
61407;SDS011;47274;43.054;25.146;2023-12-20T09:24:37;9.95;;;5.43;;
61407;SDS011;47274;43.054;25.146;2023-12-20T09:27:04;11.40;;;5.82;;
61407;SDS011;47274;43.054;25.146;2023-12-20T09:29:30;11.30;;;5.90;;
61407;SDS011;47274;43.054;25.146;2023-12-20T09:31:56;10.48;;;5.55;;
61407;SDS011;47274;43.054;25.146;2023-12-20T09:34:23;7.05;;;4.10;;
61407;SDS011;47274;43.054;25.146;2023-12-20T09:36:49;5.43;;;3.78;;
61407;SDS011;47274;43.054;25.146;2023-12-20T09:39:18;7.03;;;4.28;;
61407;SDS011;47274;43.054;25.146;2023-12-20T09:41:48;9.73;;;5.80;;
61407;SDS011;47274;43.054;25.146;2023-12-20T09:44:23;11.13;;;5.40;;
61407;SDS011;47274;43.054;25.146;2023-12-20T09:46:49;12.90;;;6.45;;
61407;SDS011;47274;43.054;25.146;2023-12-20T09:49:18;11.93;;;6.05;;
61407;SDS011;47274;43.054;25.146;2023-12-20T09:51:48;13.80;;;6.40;;
61407;SDS011;47274;43.054;25.146;2023-12-20T09:54:17;9.00;;;4.72;;
61407;SDS011;47274;43.054;25.146;2023-12-20T09:56:44;9.73;;;4.82;;
61407;SDS011;47274;43.054;25.146;2023-12-20T09:59:10;6.05;;;3.95;;
61407;SDS011;47274;43.054;25.146;2023-12-20T10:01:36;9.27;;;5.07;;
61407;SDS011;47274;43.054;25.146;2023-12-20T10:04:05;6.30;;;4.35;;
61407;SDS011;47274;43.054;25.146;2023-12-20T10:06:45;12.73;;;6.30;;
61407;SDS011;47274;43.054;25.146;2023-12-20T10:09:11;14.18;;;7.38;;
61407;SDS011;47274;43.054;25.146;2023-12-20T10:11:37;10.63;;;5.43;;
61407;SDS011;47274;43.054;25.146;2023-12-20T10:14:04;8.50;;;4.93;;
61407;SDS011;47274;43.054;25.146;2023-12-20T10:16:32;7.85;;;4.55;;
61407;SDS011;47274;43.054;25.146;2023-12-20T10:18:59;8.52;;;5.00;;
61407;SDS011;47274;43.054;25.146;2023-12-20T10:21:26;10.63;;;5.53;;
61407;SDS011;47274;43.054;25.146;2023-12-20T10:23:55;11.77;;;6.32;;
61407;SDS011;47274;43.054;25.146;2023-12-20T10:26:23;11.60;;;6.40;;
61407;SDS011;47274;43.054;25.146;2023-12-20T10:28:50;9.75;;;5.50;;
61407;SDS011;47274;43.054;25.146;2023-12-20T10:33:55;7.68;;;5.00;;
61407;SDS011;47274;43.054;25.146;2023-12-20T10:36:23;8.05;;;4.82;;
61407;SDS011;47274;43.054;25.146;2023-12-20T10:38:52;11.05;;;4.80;;
61407;SDS011;47274;43.054;25.146;2023-12-20T10:41:29;16.27;;;8.20;;
61407;SDS011;47274;43.054;25.146;2023-12-20T10:44:02;15.13;;;7.68;;
61407;SDS011;47274;43.054;25.146;2023-12-20T10:46:33;13.05;;;6.97;;
61407;SDS011;47274;43.054;25.146;2023-12-20T10:49:00;11.25;;;6.60;;
61407;SDS011;47274;43.054;25.146;2023-12-20T10:51:28;10.93;;;6.03;;
61407;SDS011;47274;43.054;25.146;2023-12-20T10:53:56;10.25;;;6.38;;
61407;SDS011;47274;43.054;25.146;2023-12-20T10:56:22;16.73;;;8.38;;
61407;SDS011;47274;43.054;25.146;2023-12-20T10:58:51;15.18;;;8.98;;
61407;SDS011;47274;43.054;25.146;2023-12-20T11:01:18;18.83;;;12.38;;
61407;SDS011;47274;43.054;25.146;2023-12-20T11:03:49;14.95;;;9.18;;
61407;SDS011;47274;43.054;25.146;2023-12-20T11:08:53;17.83;;;9.48;;
61407;SDS011;47274;43.054;25.146;2023-12-20T11:14:08;12.88;;;6.68;;
61407;SDS011;47274;43.054;25.146;2023-12-20T11:16:45;11.93;;;6.60;;
61407;SDS011;47274;43.054;25.146;2023-12-20T11:19:11;15.23;;;7.05;;
61407;SDS011;47274;43.054;25.146;2023-12-20T11:21:39;16.27;;;7.50;;
61407;SDS011;47274;43.054;25.146;2023-12-20T11:24:06;19.13;;;8.60;;
61407;SDS011;47274;43.054;25.146;2023-12-20T11:26:32;16.92;;;7.88;;
61407;SDS011;47274;43.054;25.146;2023-12-20T11:32:02;15.38;;;8.02;;
61407;SDS011;47274;43.054;25.146;2023-12-20T11:34:31;17.20;;;8.65;;
61407;SDS011;47274;43.054;25.146;2023-12-20T11:36:59;13.87;;;6.13;;
61407;SDS011;47274;43.054;25.146;2023-12-20T11:39:26;16.95;;;7.65;;
61407;SDS011;47274;43.054;25.146;2023-12-20T11:41:54;10.45;;;5.40;;
61407;SDS011;47274;43.054;25.146;2023-12-20T11:44:21;9.32;;;4.97;;
61407;SDS011;47274;43.054;25.146;2023-12-20T11:46:47;9.27;;;5.15;;
61407;SDS011;47274;43.054;25.146;2023-12-20T11:49:13;7.97;;;4.72;;
61407;SDS011;47274;43.054;25.146;2023-12-20T11:51:42;11.07;;;5.43;;
61407;SDS011;47274;43.054;25.146;2023-12-20T11:54:09;10.45;;;5.28;;
61407;SDS011;47274;43.054;25.146;2023-12-20T11:56:36;14.73;;;6.20;;
61407;SDS011;47274;43.054;25.146;2023-12-20T11:59:02;12.73;;;6.13;;
61407;SDS011;47274;43.054;25.146;2023-12-20T12:01:28;13.18;;;6.30;;
61407;SDS011;47274;43.054;25.146;2023-12-20T12:04:04;11.38;;;5.60;;
61407;SDS011;47274;43.054;25.146;2023-12-20T12:06:30;10.70;;;5.30;;
61407;SDS011;47274;43.054;25.146;2023-12-20T12:08:56;8.88;;;4.78;;
61407;SDS011;47274;43.054;25.146;2023-12-20T12:11:22;6.22;;;4.03;;
61407;SDS011;47274;43.054;25.146;2023-12-20T12:13:48;5.68;;;3.50;;
61407;SDS011;47274;43.054;25.146;2023-12-20T12:16:20;5.55;;;3.75;;
61407;SDS011;47274;43.054;25.146;2023-12-20T12:18:54;3.75;;;3.35;;
61407;SDS011;47274;43.054;25.146;2023-12-20T12:21:21;5.35;;;3.33;;
61407;SDS011;47274;43.054;25.146;2023-12-20T12:23:46;12.18;;;5.50;;
61407;SDS011;47274;43.054;25.146;2023-12-20T12:26:15;12.85;;;6.07;;
61407;SDS011;47274;43.054;25.146;2023-12-20T12:28:41;6.97;;;4.00;;
61407;SDS011;47274;43.054;25.146;2023-12-20T12:31:08;6.32;;;4.05;;
61407;SDS011;47274;43.054;25.146;2023-12-20T12:33:40;5.35;;;3.60;;
61407;SDS011;47274;43.054;25.146;2023-12-20T12:36:06;6.65;;;3.28;;
61407;SDS011;47274;43.054;25.146;2023-12-20T12:38:33;5.15;;;3.13;;
61407;SDS011;47274;43.054;25.146;2023-12-20T12:41:00;4.35;;;3.30;;
61407;SDS011;47274;43.054;25.146;2023-12-20T12:43:26;7.10;;;4.47;;
61407;SDS011;47274;43.054;25.146;2023-12-20T12:45:52;6.45;;;4.50;;
61407;SDS011;47274;43.054;25.146;2023-12-20T12:48:18;7.00;;;4.88;;
61407;SDS011;47274;43.054;25.146;2023-12-20T12:50:45;6.57;;;4.07;;
61407;SDS011;47274;43.054;25.146;2023-12-20T12:53:11;8.05;;;4.45;;
61407;SDS011;47274;43.054;25.146;2023-12-20T12:55:37;8.60;;;5.00;;
61407;SDS011;47274;43.054;25.146;2023-12-20T12:58:02;7.60;;;4.50;;
61407;SDS011;47274;43.054;25.146;2023-12-20T13:00:29;9.93;;;5.40;;
61407;SDS011;47274;43.054;25.146;2023-12-20T13:02:54;10.25;;;5.40;;
61407;SDS011;47274;43.054;25.146;2023-12-20T13:05:20;9.13;;;4.95;;
61407;SDS011;47274;43.054;25.146;2023-12-20T13:07:46;8.13;;;5.05;;
61407;SDS011;47274;43.054;25.146;2023-12-20T13:10:13;10.07;;;5.43;;
61407;SDS011;47274;43.054;25.146;2023-12-20T13:12:42;8.75;;;5.00;;
61407;SDS011;47274;43.054;25.146;2023-12-20T13:15:08;10.88;;;5.97;;
61407;SDS011;47274;43.054;25.146;2023-12-20T13:17:34;9.00;;;5.20;;
61407;SDS011;47274;43.054;25.146;2023-12-20T13:20:00;7.70;;;4.60;;
61407;SDS011;47274;43.054;25.146;2023-12-20T13:22:26;9.30;;;4.88;;
61407;SDS011;47274;43.054;25.146;2023-12-20T13:24:51;6.63;;;3.95;;
61407;SDS011;47274;43.054;25.146;2023-12-20T13:27:21;6.70;;;4.00;;
61407;SDS011;47274;43.054;25.146;2023-12-20T13:29:47;5.28;;;3.63;;
61407;SDS011;47274;43.054;25.146;2023-12-20T13:32:13;6.30;;;3.83;;
61407;SDS011;47274;43.054;25.146;2023-12-20T13:34:39;6.82;;;3.65;;
61407;SDS011;47274;43.054;25.146;2023-12-20T13:37:05;4.35;;;3.25;;
61407;SDS011;47274;43.054;25.146;2023-12-20T13:39:31;6.35;;;3.40;;
61407;SDS011;47274;43.054;25.146;2023-12-20T13:41:57;5.28;;;3.10;;
61407;SDS011;47274;43.054;25.146;2023-12-20T13:44:23;4.68;;;3.30;;
61407;SDS011;47274;43.054;25.146;2023-12-20T13:46:48;7.30;;;4.70;;
61407;SDS011;47274;43.054;25.146;2023-12-20T13:49:15;6.38;;;3.97;;
61407;SDS011;47274;43.054;25.146;2023-12-20T13:51:41;4.72;;;3.22;;
61407;SDS011;47274;43.054;25.146;2023-12-20T13:54:07;5.35;;;3.25;;
61407;SDS011;47274;43.054;25.146;2023-12-20T13:56:36;5.18;;;3.22;;
61407;SDS011;47274;43.054;25.146;2023-12-20T13:59:05;15.43;;;6.20;;
61407;SDS011;47274;43.054;25.146;2023-12-20T14:01:31;16.15;;;6.82;;
61407;SDS011;47274;43.054;25.146;2023-12-20T14:03:57;13.38;;;5.72;;
61407;SDS011;47274;43.054;25.146;2023-12-20T14:06:22;15.73;;;6.25;;
61407;SDS011;47274;43.054;25.146;2023-12-20T14:08:48;18.67;;;7.43;;
61407;SDS011;47274;43.054;25.146;2023-12-20T14:11:17;17.13;;;7.20;;
61407;SDS011;47274;43.054;25.146;2023-12-20T14:13:47;17.52;;;6.63;;
61407;SDS011;47274;43.054;25.146;2023-12-20T14:16:13;10.70;;;4.72;;
61407;SDS011;47274;43.054;25.146;2023-12-20T14:18:39;10.77;;;5.10;;
61407;SDS011;47274;43.054;25.146;2023-12-20T14:21:10;9.18;;;4.38;;
61407;SDS011;47274;43.054;25.146;2023-12-20T14:23:42;9.15;;;3.97;;
61407;SDS011;47274;43.054;25.146;2023-12-20T14:26:14;7.57;;;3.88;;
61407;SDS011;47274;43.054;25.146;2023-12-20T14:28:46;7.55;;;4.00;;
61407;SDS011;47274;43.054;25.146;2023-12-20T14:31:12;6.97;;;3.95;;
61407;SDS011;47274;43.054;25.146;2023-12-20T14:33:43;10.05;;;4.68;;
61407;SDS011;47274;43.054;25.146;2023-12-20T14:36:11;12.27;;;5.13;;
61407;SDS011;47274;43.054;25.146;2023-12-20T14:38:37;11.20;;;4.90;;
61407;SDS011;47274;43.054;25.146;2023-12-20T14:41:08;14.98;;;6.18;;
61407;SDS011;47274;43.054;25.146;2023-12-20T14:43:35;13.38;;;5.40;;
61407;SDS011;47274;43.054;25.146;2023-12-20T14:46:01;12.27;;;5.30;;
61407;SDS011;47274;43.054;25.146;2023-12-20T14:48:26;8.18;;;4.30;;
61407;SDS011;47274;43.054;25.146;2023-12-20T14:50:53;15.05;;;6.65;;
61407;SDS011;47274;43.054;25.146;2023-12-20T14:53:19;28.15;;;13.45;;